createdAt,value
2023-04-09T16:18:12.420Z,15.10
2023-04-09T16:18:23.160Z,14.90
2023-04-09T16:18:33.397Z,12.90
2023-04-09T16:18:43.612Z,11.00
2023-04-09T16:18:54.155Z,8.20
2023-04-09T16:19:38.540Z,7.20
2023-04-09T16:19:44.532Z,14.90
2023-04-09T16:19:54.624Z,16.40
2023-04-09T16:20:04.828Z,16.20
2023-04-09T16:20:15.030Z,14.90
2023-04-09T16:20:26.061Z,14.80
2023-04-09T16:20:46.397Z,16.30
2023-04-09T16:20:55.881Z,16.50
2023-04-09T16:21:05.624Z,16.00
2023-04-09T16:21:16.663Z,16.60
2023-04-09T16:21:25.828Z,17.00
2023-04-09T16:21:36.063Z,17.80
2023-04-09T16:21:56.218Z,17.80
2023-04-09T16:22:06.459Z,17.00
2023-04-09T16:22:16.505Z,16.20
2023-04-09T16:22:26.591Z,16.50
2023-04-09T16:22:38.411Z,16.00
2023-04-09T16:22:47.221Z,16.50
2023-04-09T16:22:57.091Z,17.70
2023-04-09T16:23:06.970Z,20.70
2023-04-09T16:23:18.217Z,21.90
2023-04-09T16:23:29.923Z,20.30
2023-04-09T16:23:47.659Z,15.40
2023-04-09T16:23:59.801Z,15.80
2023-04-09T16:24:08.699Z,16.60
2023-04-09T16:24:18.086Z,16.30
2023-04-09T16:24:28.242Z,15.30
2023-04-09T16:24:38.372Z,14.20
2023-04-09T16:24:48.554Z,16.10
2023-04-09T16:25:08.851Z,18.10
2023-04-09T16:25:18.785Z,17.30
2023-04-09T16:25:28.826Z,18.90
2023-04-09T16:25:38.972Z,18.60
2023-04-09T16:25:52.149Z,19.30
2023-04-09T16:25:59.223Z,24.50
2023-04-09T16:26:09.284Z,26.20
2023-04-09T16:26:19.407Z,24.70
2023-04-09T16:26:29.649Z,17.50
2023-04-09T16:26:39.674Z,15.00
2023-04-09T16:26:59.882Z,17.40
2023-04-09T16:27:10.020Z,17.30
2023-04-09T16:27:20.250Z,16.90
2023-04-09T16:27:30.454Z,14.70
2023-04-09T16:27:41.437Z,13.20
2023-04-09T16:27:50.684Z,14.10
2023-04-09T16:28:00.877Z,15.00
2023-04-09T16:28:11.590Z,15.50
2023-04-09T16:28:21.174Z,12.50
2023-04-09T16:28:31.599Z,11.80
2023-04-09T16:28:51.668Z,10.00
2023-04-09T16:29:01.567Z,8.70
2023-04-09T16:29:12.558Z,9.70
2023-04-09T16:29:21.813Z,9.70
2023-04-09T16:29:32.051Z,10.20
2023-04-09T16:29:42.105Z,10.00
2023-04-09T16:29:52.226Z,11.70
2023-04-09T16:30:02.463Z,15.30
2023-04-09T16:30:12.489Z,16.10
2023-04-09T16:30:23.338Z,15.30
2023-04-09T16:30:32.756Z,12.60
2023-04-09T16:30:42.883Z,12.30
2023-04-09T16:30:52.943Z,12.50
2023-04-09T16:31:03.107Z,13.00
2023-04-09T16:31:13.217Z,13.10
2023-04-09T16:31:33.457Z,13.20
2023-04-09T16:31:43.689Z,12.40
2023-04-09T16:31:53.728Z,13.70
2023-04-09T16:32:03.888Z,17.90
2023-04-09T16:32:13.919Z,22.90
2023-04-09T16:32:24.415Z,23.70
2023-04-09T16:32:34.299Z,21.00
2023-04-09T16:32:44.336Z,18.90
2023-04-09T16:32:54.589Z,18.20
2023-04-09T16:33:04.600Z,17.30
2023-04-09T16:33:14.803Z,16.70
2023-04-09T16:33:24.911Z,15.50
2023-04-09T16:33:35.174Z,17.10
2023-04-09T16:33:45.271Z,19.20
2023-04-09T16:33:55.311Z,21.70
2023-04-09T16:34:05.502Z,21.10
2023-04-09T16:34:15.665Z,17.60
2023-04-09T16:34:25.624Z,16.70
2023-04-09T16:34:35.835Z,15.90
2023-04-09T16:34:45.916Z,15.80
2023-04-09T16:34:55.968Z,12.80
2023-04-09T16:35:06.061Z,10.70
2023-04-09T16:35:16.342Z,9.00
2023-04-09T16:35:26.364Z,9.70
2023-04-09T16:35:38.854Z,10.60
2023-04-09T16:35:46.628Z,11.40
2023-04-09T16:35:56.703Z,12.30
2023-04-09T16:36:06.862Z,11.70
2023-04-09T16:36:16.909Z,11.00
2023-04-09T16:36:27.030Z,9.60
2023-04-09T16:36:38.398Z,10.20
2023-04-09T16:36:47.320Z,11.90
2023-04-09T16:36:57.449Z,12.60
2023-04-09T16:37:07.610Z,12.80
2023-04-09T16:37:17.895Z,9.70
2023-04-09T16:37:27.900Z,8.60
2023-04-09T16:37:48.207Z,9.20
2023-04-09T16:37:58.501Z,7.90
2023-04-09T16:38:08.324Z,9.40
2023-04-09T16:38:18.569Z,11.30
2023-04-09T16:38:28.673Z,14.40
2023-04-09T16:38:39.295Z,13.00
2023-04-09T16:38:48.787Z,12.00
2023-04-09T16:38:58.948Z,13.60
2023-04-09T16:39:10.083Z,15.90
2023-04-09T16:39:19.263Z,14.80
2023-04-09T16:39:29.440Z,9.50
2023-04-09T16:39:39.610Z,8.40
2023-04-09T16:39:49.690Z,10.70
2023-04-09T16:39:59.813Z,13.30
2023-04-09T16:40:20.071Z,13.80
2023-04-09T16:40:30.229Z,15.80
2023-04-09T16:40:40.421Z,16.40
2023-04-09T16:40:51.250Z,13.80
2023-04-09T16:41:00.549Z,10.40
2023-04-09T16:41:10.696Z,14.00
2023-04-09T16:41:20.840Z,25.60
2023-04-09T16:41:31.391Z,28.90
2023-04-09T16:41:41.199Z,23.30
2023-04-09T16:41:52.179Z,12.50
2023-04-09T16:42:01.496Z,11.10
2023-04-09T16:42:11.488Z,11.30
2023-04-09T16:42:21.613Z,11.80
2023-04-09T16:42:31.737Z,11.30
2023-04-09T16:42:41.837Z,10.80
2023-04-09T16:43:02.219Z,12.60
2023-04-09T16:43:12.247Z,11.80
2023-04-09T16:43:22.568Z,12.40
2023-04-09T16:43:32.620Z,10.00
2023-04-09T16:43:42.719Z,10.30
2023-04-09T16:43:53.633Z,9.70
2023-04-09T16:44:02.871Z,10.30
2023-04-09T16:44:13.109Z,11.00
2023-04-09T16:44:23.107Z,11.10
2023-04-09T16:44:33.268Z,10.30
2023-04-09T16:44:43.334Z,11.30
2023-04-09T16:45:03.639Z,13.10
2023-04-09T16:45:14.033Z,13.40
2023-04-09T16:45:23.940Z,12.70
2023-04-09T16:45:35.441Z,12.30
2023-04-09T16:45:44.197Z,13.10
2023-04-09T16:45:54.522Z,13.70
2023-04-09T16:46:05.501Z,12.20
2023-04-09T16:46:14.670Z,12.30
2023-04-09T16:46:24.836Z,11.10
2023-04-09T16:46:44.004Z,8.50
2023-04-09T16:46:55.252Z,8.10
2023-04-09T16:47:06.078Z,8.20
2023-04-09T16:47:15.402Z,7.70
2023-04-09T16:47:25.555Z,7.30
2023-04-09T16:47:35.576Z,7.30
2023-04-09T16:47:47.259Z,7.30
2023-04-09T16:47:55.836Z,7.90
2023-04-09T16:48:16.058Z,7.50
2023-04-09T16:48:26.113Z,7.70
2023-04-09T16:48:36.339Z,8.20
2023-04-09T16:48:46.582Z,8.40
2023-04-09T16:48:56.585Z,7.80
2023-04-09T16:49:06.770Z,7.60
2023-04-09T16:49:17.007Z,9.20
2023-04-09T16:49:26.855Z,9.50
2023-04-09T16:49:36.967Z,9.20
2023-04-09T16:49:47.377Z,7.90
2023-04-09T16:49:58.197Z,7.40
2023-04-09T16:50:07.400Z,7.20
2023-04-09T16:50:17.437Z,7.20
2023-04-09T16:50:27.513Z,7.70
2023-04-09T16:50:37.841Z,8.00
2023-04-09T16:50:47.767Z,8.60
2023-04-09T16:51:08.596Z,9.40
2023-04-09T16:51:18.226Z,8.90
2023-04-09T16:51:28.345Z,8.00
2023-04-09T16:51:38.395Z,7.70
2023-04-09T16:51:49.633Z,8.30
2023-04-09T16:51:58.692Z,9.00
2023-04-09T16:52:08.879Z,9.40
2023-04-09T16:52:18.896Z,9.10
2023-04-09T16:52:29.020Z,8.80
2023-04-09T16:52:39.222Z,8.80
2023-04-09T16:52:59.530Z,10.20
2023-04-09T16:53:09.708Z,9.70
2023-04-09T16:53:19.723Z,8.00
2023-04-09T16:53:30.710Z,7.50
2023-04-09T16:53:40.052Z,7.80
2023-04-09T16:53:50.263Z,8.50
2023-04-09T16:54:00.265Z,8.80
2023-04-09T16:54:10.426Z,9.90
2023-04-09T16:54:20.621Z,12.10
2023-04-09T16:54:39.764Z,17.00
2023-04-09T16:54:50.942Z,16.70
2023-04-09T16:55:01.072Z,16.90
2023-04-09T16:55:11.053Z,13.60
2023-04-09T16:55:22.156Z,12.50
2023-04-09T16:55:31.372Z,11.00
2023-04-09T16:55:41.540Z,13.00
2023-04-09T16:55:51.621Z,14.70
2023-04-09T16:56:01.771Z,17.00
2023-04-09T16:56:11.821Z,14.50
2023-04-09T16:56:32.839Z,7.50
2023-04-09T16:56:42.401Z,9.20
2023-04-09T16:56:52.342Z,10.50
2023-04-09T16:57:02.314Z,11.70
2023-04-09T16:57:12.621Z,12.30
2023-04-09T16:57:22.653Z,13.80
2023-04-09T16:57:32.767Z,13.90
2023-04-09T16:57:42.979Z,11.60
2023-04-09T16:57:53.570Z,9.60
2023-04-09T16:58:03.211Z,8.50
2023-04-09T16:58:13.276Z,8.90
2023-04-09T16:58:24.530Z,8.50
2023-04-09T16:58:33.489Z,8.80
2023-04-09T16:58:43.720Z,9.40
2023-04-09T16:58:54.360Z,11.30
2023-04-09T16:59:03.949Z,13.70
2023-04-09T16:59:13.967Z,15.10
2023-04-09T16:59:33.373Z,15.20
2023-04-09T16:59:44.667Z,15.10
2023-04-09T16:59:54.625Z,14.80
2023-04-09T17:00:05.899Z,13.70
2023-04-09T17:00:14.782Z,11.90
2023-04-09T17:00:25.571Z,10.90
2023-04-09T17:00:35.049Z,11.80
2023-04-09T17:00:47.393Z,11.90
2023-04-09T17:00:55.251Z,11.20
2023-04-09T17:01:14.430Z,12.00
2023-04-09T17:01:25.626Z,14.50
2023-04-09T17:01:35.789Z,14.50
2023-04-09T17:01:46.291Z,15.90
2023-04-09T17:01:56.155Z,15.80
2023-04-09T17:02:07.153Z,15.20
2023-04-09T17:02:16.239Z,13.90
2023-04-09T17:02:26.358Z,13.20
2023-04-09T17:02:36.481Z,14.20
2023-04-09T17:02:46.832Z,15.10
2023-04-09T17:02:56.780Z,16.10
2023-04-09T17:03:17.140Z,14.70
2023-04-09T17:03:28.310Z,11.50
2023-04-09T17:03:37.306Z,10.10
2023-04-09T17:03:47.713Z,10.80
2023-04-09T17:03:57.969Z,12.50
2023-04-09T17:04:07.785Z,12.90
2023-04-09T17:04:17.852Z,12.00
2023-04-09T17:04:38.182Z,12.10
2023-04-09T17:04:48.155Z,10.60
2023-04-09T17:05:00.992Z,12.20
2023-04-09T17:05:08.987Z,13.00
2023-04-09T17:05:18.552Z,15.20
2023-04-09T17:05:28.786Z,13.70
2023-04-09T17:05:38.859Z,13.60
2023-04-09T17:05:49.101Z,13.70
2023-04-09T17:06:08.297Z,11.50
2023-04-09T17:06:19.360Z,10.70
2023-04-09T17:06:29.393Z,10.70
2023-04-09T17:06:39.560Z,10.90
2023-04-09T17:06:49.691Z,11.30
2023-04-09T17:06:59.801Z,12.30
2023-04-09T17:07:09.890Z,15.90
2023-04-09T17:07:21.073Z,18.30
2023-04-09T17:07:30.139Z,17.90
2023-04-09T17:07:40.213Z,15.20
2023-04-09T17:07:50.531Z,12.80
2023-04-09T17:08:00.505Z,14.50
2023-04-09T17:08:10.800Z,15.20
2023-04-09T17:08:31.704Z,17.50
2023-04-09T17:08:41.209Z,18.70
2023-04-09T17:08:51.569Z,19.30
2023-04-09T17:09:01.362Z,17.50
2023-04-09T17:09:11.387Z,17.10
2023-04-09T17:09:21.721Z,16.70
2023-04-09T17:09:31.646Z,15.20
2023-04-09T17:09:41.709Z,14.00
2023-04-09T17:09:51.888Z,12.50
2023-04-09T17:10:02.272Z,13.20
2023-04-09T17:10:12.091Z,15.90
2023-04-09T17:10:22.232Z,18.00
2023-04-09T17:10:32.409Z,20.10
2023-04-09T17:10:42.516Z,19.10
2023-04-09T17:10:53.600Z,18.20
2023-04-09T17:11:02.960Z,19.20
2023-04-09T17:11:13.125Z,18.70
2023-04-09T17:11:23.196Z,19.70
2023-04-09T17:11:34.436Z,17.90
2023-04-09T17:11:43.319Z,17.40
2023-04-09T17:12:02.509Z,14.70
2023-04-09T17:12:13.635Z,14.10
2023-04-09T17:12:23.639Z,14.90
2023-04-09T17:12:33.739Z,15.30
2023-04-09T17:12:44.272Z,16.10
2023-04-09T17:12:54.148Z,15.90
2023-04-09T17:13:05.416Z,15.30
2023-04-09T17:13:14.444Z,13.90
2023-04-09T17:13:24.582Z,13.20
2023-04-09T17:13:34.635Z,13.50
2023-04-09T17:13:44.857Z,14.30
2023-04-09T17:13:55.009Z,14.60
2023-04-09T17:14:14.001Z,14.30
2023-04-09T17:14:25.229Z,14.00
2023-04-09T17:14:35.165Z,14.50
2023-04-09T17:14:45.316Z,15.30
2023-04-09T17:14:55.548Z,15.60
2023-04-09T17:15:05.669Z,15.90
2023-04-09T17:15:16.652Z,16.00
2023-04-09T17:15:25.776Z,16.60
2023-04-09T17:15:35.898Z,16.60
2023-04-09T17:15:45.921Z,18.00
2023-04-09T17:15:56.071Z,19.60
2023-04-09T17:16:06.250Z,18.40
2023-04-09T17:16:26.586Z,15.80
2023-04-09T17:16:37.846Z,18.60
2023-04-09T17:16:46.605Z,20.00
2023-04-09T17:16:56.756Z,19.60
2023-04-09T17:17:06.987Z,17.10
2023-04-09T17:17:17.123Z,16.30
2023-04-09T17:17:27.110Z,17.20
2023-04-09T17:17:47.461Z,17.60
2023-04-09T17:17:57.398Z,15.90
2023-04-09T17:18:07.806Z,17.40
2023-04-09T17:18:17.810Z,18.60
2023-04-09T17:18:27.838Z,19.30
2023-04-09T17:18:37.996Z,17.00
2023-04-09T17:18:48.203Z,17.30
2023-04-09T17:18:58.257Z,17.50
2023-04-09T17:19:08.426Z,17.50
2023-04-09T17:19:18.518Z,16.50
2023-04-09T17:19:28.669Z,14.90
2023-04-09T17:19:38.785Z,15.00
2023-04-09T17:19:48.902Z,16.00
2023-04-09T17:19:58.947Z,17.50
2023-04-09T17:20:09.103Z,17.50
2023-04-09T17:20:19.231Z,17.80
2023-04-09T17:20:29.556Z,16.70
2023-04-09T17:20:39.496Z,15.70
2023-04-09T17:20:50.486Z,13.70
2023-04-09T17:20:59.749Z,13.30
2023-04-09T17:21:09.801Z,13.10
2023-04-09T17:21:19.935Z,13.60
2023-04-09T17:21:30.134Z,13.70
2023-04-09T17:21:41.060Z,13.20
2023-04-09T17:21:51.063Z,13.00
2023-04-09T17:22:00.478Z,12.60
2023-04-09T17:22:11.531Z,13.20
